Time;durP1;ratioP1;P1;durP2;ratioP2;P2;SDS_P1;SDS_P2;PMS_P1;PMS_P2;Temp;Humidity;BMP_temperature;BMP_pressure;BME280_temperature;BME280_humidity;BME280_pressure;Samples;Min_cycle;Max_cycle;Signal;HPM_P1;HPM_P2
2023/08/26 00:00:13;;;;;;;;;;;20.20;99.90;;;;;;2075856;28;19921;-66
2023/08/26 00:01:14;;;;;;;;;;;20.10;99.90;;;;;;2079876;28;19916;-67
2023/08/26 00:02:14;;;;;;;;;;;20.10;99.90;;;;;;2072845;28;20366;-66
2023/08/26 00:03:15;;;;;;;;;;;20.10;99.90;;;;;;2076390;28;19995;-66
2023/08/26 00:04:16;;;;;;;;;;;20.10;99.90;;;;;;2084067;28;19959;-66
2023/08/26 00:05:16;;;;;;;;;;;20.10;99.90;;;;;;2084031;28;20669;-66
2023/08/26 00:06:17;;;;;;;;;;;20.10;99.90;;;;;;2076797;28;19917;-66
2023/08/26 00:07:18;;;;;;;;;;;20.10;99.90;;;;;;2076381;28;20349;-67
2023/08/26 00:08:18;;;;;;;;;;;20.10;99.90;;;;;;2075713;28;19917;-66
2023/08/26 00:09:19;;;;;;;;;;;20.10;99.90;;;;;;2062996;28;19918;-66
2023/08/26 00:10:19;;;;;;;;;;;20.10;99.90;;;;;;2071727;28;19921;-65
2023/08/26 00:11:20;;;;;;;;;;;20.10;99.90;;;;;;2073329;28;20430;-66
2023/08/26 00:12:20;;;;;;;;;;;20.10;99.90;;;;;;2076614;28;19913;-67
2023/08/26 00:13:20;;;;;;;;;;;20.10;99.90;;;;;;2076427;28;19919;-66
2023/08/26 00:14:21;;;;;;;;;;;20.10;99.90;;;;;;2076314;28;19953;-66
2023/08/26 00:15:22;;;;;;;;;;;20.10;99.90;;;;;;2076751;28;19921;-67
2023/08/26 00:16:22;;;;;;;;;;;20.00;99.90;;;;;;2076300;28;19940;-67
2023/08/26 00:17:23;;;;;;;;;;;20.10;99.90;;;;;;2070234;28;19917;-66
2023/08/26 00:18:24;;;;;;;;;;;20.10;99.90;;;;;;2076356;28;19919;-66
2023/08/26 00:19:24;;;;;;;;;;;20.10;99.90;;;;;;2076537;28;19976;-66
2023/08/26 00:20:25;;;;;;;;;;;20.10;99.90;;;;;;2076571;28;19924;-66
2023/08/26 00:21:26;;;;;;;;;;;20.10;99.90;;;;;;2076349;28;19917;-66
2023/08/26 00:22:26;;;;;;;;;;;20.00;99.90;;;;;;2076483;28;19913;-66
2023/08/26 00:23:27;;;;;;;;;;;20.00;99.90;;;;;;2083817;28;19920;-66
2023/08/26 00:24:27;;;;;;;;;;;20.00;99.90;;;;;;2083906;28;19979;-67
2023/08/26 00:25:28;;;;;;;;;;;20.00;99.90;;;;;;2076577;28;19999;-66
2023/08/26 00:26:29;;;;;;;;;;;20.00;99.90;;;;;;2076107;28;19996;-66
2023/08/26 00:27:29;;;;;;;;;;;19.90;99.90;;;;;;2075620;28;19999;-66
2023/08/26 00:28:30;;;;;;;;;;;19.90;99.90;;;;;;2069192;28;19967;-66
2023/08/26 00:29:30;;;;;;;;;;;19.90;99.90;;;;;;2080498;28;19917;-66
2023/08/26 00:30:31;;;;;;;;;;;19.90;99.90;;;;;;2076293;28;19955;-67
2023/08/26 00:31:31;;;;;;;;;;;19.90;99.90;;;;;;2076280;28;19913;-66
2023/08/26 00:32:32;;;;;;;;;;;19.90;99.90;;;;;;2071160;28;20044;-66
2023/08/26 00:33:32;;;;;;;;;;;19.90;99.90;;;;;;2075399;28;19948;-67
2023/08/26 00:34:34;;;;;;;;;;;19.90;99.90;;;;;;2077868;28;19909;-67
2023/08/26 00:35:36;;;;;;;;;;;19.90;99.90;;;;;;2067696;28;20273;-66
2023/08/26 00:36:37;;;;;;;;;;;19.90;99.90;;;;;;2067553;28;19925;-66
2023/08/26 00:37:38;;;;;;;;;;;19.90;99.90;;;;;;2067495;28;19917;-66
2023/08/26 00:38:38;;;;;;;;;;;19.90;99.90;;;;;;2075842;28;20373;-67
2023/08/26 00:39:39;;;;;;;;;;;19.90;99.90;;;;;;2079760;28;19925;-65
2023/08/26 00:40:39;;;;;;;;;;;19.90;99.90;;;;;;2075315;28;19935;-65
2023/08/26 00:41:40;;;;;;;;;;;19.90;99.90;;;;;;2067508;28;20319;-66
2023/08/26 00:42:40;;;;;;;;;;;19.90;99.90;;;;;;2059332;28;20422;-65
2023/08/26 00:43:41;;;;;;;;;;;19.90;99.90;;;;;;2067232;28;20031;-67
2023/08/26 00:44:41;;;;;;;;;;;19.90;99.90;;;;;;2075898;28;19960;-65
2023/08/26 00:45:43;;;;;;;;;;;19.90;99.90;;;;;;2067325;28;20454;-65
2023/08/26 00:46:44;;;;;;;;;;;19.90;99.90;;;;;;2067310;28;20032;-65
2023/08/26 00:47:44;;;;;;;;;;;19.90;99.90;;;;;;2075096;28;20545;-65
2023/08/26 00:48:45;;;;;;;;;;;19.90;99.90;;;;;;2074878;28;20394;-66
2023/08/26 00:49:45;;;;;;;;;;;19.90;99.90;;;;;;2067569;28;20400;-66
2023/08/26 00:50:47;;;;;;;;;;;19.90;99.90;;;;;;2067846;28;19921;-68
2023/08/26 00:51:48;;;;;;;;;;;19.90;99.90;;;;;;2075873;28;19960;-67
2023/08/26 00:52:48;;;;;;;;;;;19.90;99.90;;;;;;2076031;28;20411;-66
2023/08/26 00:53:49;;;;;;;;;;;19.90;99.90;;;;;;2075244;28;20415;-66
2023/08/26 00:54:51;;;;;;;;;;;19.90;99.90;;;;;;2071614;28;19943;-66
2023/08/26 00:55:51;;;;;;;;;;;19.90;99.90;;;;;;2075703;28;20407;-66
2023/08/26 00:56:52;;;;;;;;;;;19.90;99.90;;;;;;2075550;28;20329;-66
2023/08/26 00:57:53;;;;;;;;;;;19.90;99.90;;;;;;2076067;28;19923;-66
2023/08/26 00:58:53;;;;;;;;;;;19.90;99.90;;;;;;2076213;28;19924;-66
2023/08/26 00:59:54;;;;;;;;;;;19.90;99.90;;;;;;2075047;28;20558;-66
2023/08/26 01:00:55;;;;;;;;;;;19.90;99.90;;;;;;2071077;28;19917;-66
2023/08/26 01:01:56;;;;;;;;;;;19.90;99.90;;;;;;2075468;28;19917;-66
2023/08/26 01:02:56;;;;;;;;;;;19.90;99.90;;;;;;2067239;28;20618;-66
2023/08/26 01:03:57;;;;;;;;;;;20.00;99.90;;;;;;2059177;28;20504;-66
2023/08/26 01:04:57;;;;;;;;;;;20.00;99.90;;;;;;2059061;28;19914;-66
2023/08/26 01:05:58;;;;;;;;;;;20.00;99.90;;;;;;2071220;28;19984;-67
2023/08/26 01:06:59;;;;;;;;;;;20.00;99.90;;;;;;2072971;28;20519;-66
2023/08/26 01:08:01;;;;;;;;;;;20.00;99.90;;;;;;2075258;28;19917;-66
2023/08/26 01:09:03;;;;;;;;;;;20.00;99.90;;;;;;2075259;28;19921;-66
2023/08/26 01:10:03;;;;;;;;;;;20.00;99.90;;;;;;2075565;28;19924;-66
2023/08/26 01:11:09;;;;;;;;;;;20.00;99.90;;;;;;2076022;28;20368;-66
2023/08/26 01:12:21;;;;;;;;;;;20.00;99.90;;;;;;2076041;28;19917;-66
2023/08/26 01:13:26;;;;;;;;;;;20.00;99.90;;;;;;2071965;28;19917;-66
2023/08/26 01:14:40;;;;;;;;;;;20.00;99.90;;;;;;2075113;28;20474;-66
2023/08/26 01:15:42;;;;;;;;;;;20.10;99.90;;;;;;2074921;28;19948;-66
2023/08/26 01:16:43;;;;;;;;;;;20.00;99.90;;;;;;2072709;28;19953;-66
2023/08/26 01:17:44;;;;;;;;;;;20.00;99.90;;;;;;2075643;28;19917;-68
2023/08/26 01:18:46;;;;;;;;;;;20.00;99.90;;;;;;2075946;28;19924;-66
2023/08/26 01:19:47;;;;;;;;;;;20.00;99.90;;;;;;2075816;28;20327;-67
2023/08/26 01:20:48;;;;;;;;;;;20.00;99.90;;;;;;2076053;28;19917;-65
2023/08/26 01:21:50;;;;;;;;;;;20.00;99.90;;;;;;2075142;28;20028;-66
2023/08/26 01:22:53;;;;;;;;;;;20.00;99.90;;;;;;2066990;28;20036;-66
2023/08/26 01:23:54;;;;;;;;;;;20.10;99.90;;;;;;2071496;28;19921;-66
2023/08/26 01:24:54;;;;;;;;;;;20.10;99.90;;;;;;2070853;28;19927;-66
2023/08/26 01:25:55;;;;;;;;;;;20.10;99.90;;;;;;2066888;28;20527;-67
2023/08/26 01:26:55;;;;;;;;;;;20.10;99.90;;;;;;2074708;28;19975;-67
2023/08/26 01:27:57;;;;;;;;;;;20.10;99.90;;;;;;2067114;28;19953;-66
2023/08/26 01:28:58;;;;;;;;;;;20.10;99.90;;;;;;2067168;28;20166;-66
2023/08/26 01:30:00;;;;;;;;;;;20.20;99.90;;;;;;2075117;28;19956;-67
2023/08/26 01:31:04;;;;;;;;;;;20.20;99.90;;;;;;2075134;28;19936;-66
2023/08/26 01:32:23;;;;;;;;;;;20.20;99.90;;;;;;2075208;28;19924;-67
2023/08/26 01:33:26;;;;;;;;;;;20.30;99.90;;;;;;2075341;28;20402;-68
2023/08/26 01:34:32;;;;;;;;;;;20.30;99.90;;;;;;2074906;28;19925;-67
2023/08/26 01:35:35;;;;;;;;;;;20.30;99.90;;;;;;2074932;28;19917;-66
2023/08/26 01:36:41;;;;;;;;;;;20.30;99.90;;;;;;2075784;28;19916;-66
2023/08/26 01:37:43;;;;;;;;;;;20.30;99.90;;;;;;2081433;28;20466;-67
2023/08/26 01:38:44;;;;;;;;;;;20.30;99.90;;;;;;2083212;28;19927;-68
2023/08/26 01:39:47;;;;;;;;;;;20.40;99.90;;;;;;2082016;28;19967;-67
2023/08/26 01:40:52;;;;;;;;;;;20.40;99.90;;;;;;2074920;28;19971;-67
2023/08/26 01:41:53;;;;;;;;;;;20.40;99.90;;;;;;2075678;28;20675;-67
2023/08/26 01:42:54;;;;;;;;;;;20.40;99.90;;;;;;2075033;28;19917;-67
2023/08/26 01:43:55;;;;;;;;;;;20.50;99.90;;;;;;2075213;28;19917;-66
2023/08/26 01:44:56;;;;;;;;;;;20.50;99.90;;;;;;2070682;28;19963;-65
2023/08/26 01:45:57;;;;;;;;;;;20.50;99.90;;;;;;2070809;28;19921;-66
2023/08/26 01:46:57;;;;;;;;;;;20.50;99.90;;;;;;2072312;28;20000;-66
2023/08/26 01:47:58;;;;;;;;;;;20.50;99.90;;;;;;2083391;28;19924;-66
2023/08/26 01:48:58;;;;;;;;;;;20.50;99.90;;;;;;2083239;28;19916;-66
2023/08/26 01:49:59;;;;;;;;;;;20.60;99.90;;;;;;2074863;28;19924;-66
2023/08/26 01:50:59;;;;;;;;;;;20.60;99.90;;;;;;2074139;28;20314;-67
2023/08/26 01:52:00;;;;;;;;;;;20.60;99.90;;;;;;2063594;28;19945;-66
2023/08/26 01:53:00;;;;;;;;;;;20.60;99.90;;;;;;2066024;28;20285;-66
2023/08/26 01:54:02;;;;;;;;;;;20.60;99.90;;;;;;2061870;28;19918;-66
2023/08/26 01:55:03;;;;;;;;;;;20.60;99.90;;;;;;2067016;28;20004;-68
2023/08/26 01:56:03;;;;;;;;;;;20.60;99.90;;;;;;2073058;28;19924;-66
2023/08/26 01:57:04;;;;;;;;;;;20.60;99.90;;;;;;2074941;28;19917;-64
2023/08/26 01:58:05;;;;;;;;;;;20.60;99.90;;;;;;2061186;28;19924;-67
2023/08/26 01:59:06;;;;;;;;;;;20.60;99.90;;;;;;2066882;28;19928;-66
2023/08/26 02:00:07;;;;;;;;;;;20.60;99.90;;;;;;2066894;28;19918;-65
2023/08/26 02:01:15;;;;;;;;;;;20.60;99.90;;;;;;2075308;28;19917;-65
2023/08/26 02:02:16;;;;;;;;;;;20.70;99.90;;;;;;2075086;28;19917;-65
2023/08/26 02:03:17;;;;;;;;;;;20.70;99.90;;;;;;2075003;28;20394;-66
2023/08/26 02:04:18;;;;;;;;;;;20.70;99.90;;;;;;2075224;28;19929;-65
2023/08/26 02:05:18;;;;;;;;;;;20.70;99.90;;;;;;2075403;28;19920;-66
2023/08/26 02:06:19;;;;;;;;;;;20.70;99.90;;;;;;2066622;28;19921;-65
2023/08/26 02:07:20;;;;;;;;;;;20.70;99.90;;;;;;2051355;28;19929;-65
2023/08/26 02:08:21;;;;;;;;;;;20.70;99.90;;;;;;2066730;28;20544;-65
2023/08/26 02:09:21;;;;;;;;;;;20.70;99.90;;;;;;2066609;28;19913;-66
2023/08/26 02:10:22;;;;;;;;;;;20.60;99.90;;;;;;2066708;28;19922;-66
2023/08/26 02:11:22;;;;;;;;;;;20.60;99.90;;;;;;2058623;28;19941;-65
2023/08/26 02:12:23;;;;;;;;;;;20.60;99.90;;;;;;2066576;28;19918;-66
2023/08/26 02:13:24;;;;;;;;;;;20.60;99.90;;;;;;2071486;28;19917;-64
2023/08/26 02:14:25;;;;;;;;;;;20.60;99.90;;;;;;2074867;28;20427;-66
2023/08/26 02:15:25;;;;;;;;;;;20.60;99.90;;;;;;2066712;28;19955;-78
2023/08/26 02:16:26;;;;;;;;;;;20.60;99.90;;;;;;2065652;28;20328;-71
2023/08/26 02:17:26;;;;;;;;;;;20.60;99.90;;;;;;2065687;28;19914;-79
2023/08/26 02:18:28;;;;;;;;;;;20.60;99.90;;;;;;2066044;28;20384;-79
2023/08/26 02:19:28;;;;;;;;;;;20.60;99.90;;;;;;2063250;28;19921;-79
2023/08/26 02:20:30;;;;;;;;;;;20.60;99.90;;;;;;2056349;28;19925;-79
2023/08/26 02:21:31;;;;;;;;;;;20.60;99.90;;;;;;2058286;28;19954;-79
2023/08/26 02:22:31;;;;;;;;;;;20.60;99.90;;;;;;2066816;28;19914;-78
2023/08/26 02:23:32;;;;;;;;;;;20.60;99.90;;;;;;2066667;28;20424;-78
2023/08/26 02:24:32;;;;;;;;;;;20.60;99.90;;;;;;2074984;28;20395;-78
2023/08/26 02:25:33;;;;;;;;;;;20.50;99.90;;;;;;2074990;28;19913;-75
2023/08/26 02:26:35;;;;;;;;;;;20.50;99.90;;;;;;2070641;28;19921;-73
2023/08/26 02:27:36;;;;;;;;;;;20.50;99.90;;;;;;2069404;28;19996;-74
2023/08/26 02:28:37;;;;;;;;;;;20.50;99.90;;;;;;2064211;28;19917;-74
2023/08/26 02:29:37;;;;;;;;;;;20.50;99.90;;;;;;2074945;28;19913;-75
2023/08/26 02:30:38;;;;;;;;;;;20.50;99.90;;;;;;2074958;28;19921;-76
2023/08/26 02:31:38;;;;;;;;;;;20.60;99.90;;;;;;2066303;28;19917;-76
2023/08/26 02:32:39;;;;;;;;;;;20.60;99.90;;;;;;2072614;28;20024;-75
2023/08/26 02:33:39;;;;;;;;;;;20.60;99.90;;;;;;2066440;28;19922;-74
2023/08/26 02:34:40;;;;;;;;;;;20.50;99.90;;;;;;2070701;28;20019;-76
2023/08/26 02:35:47;;;;;;;;;;;20.50;99.90;;;;;;2074697;28;20007;-76
2023/08/26 02:36:48;;;;;;;;;;;20.50;99.90;;;;;;2074856;28;19951;-76
2023/08/26 02:37:49;;;;;;;;;;;20.60;99.90;;;;;;2075018;28;19972;-76
2023/08/26 02:38:50;;;;;;;;;;;20.50;99.90;;;;;;2078389;28;19917;-76
2023/08/26 02:39:51;;;;;;;;;;;20.50;99.90;;;;;;2075092;28;19925;-76
2023/08/26 02:40:52;;;;;;;;;;;20.50;99.90;;;;;;2074716;28;20443;-76
2023/08/26 02:41:53;;;;;;;;;;;20.50;99.90;;;;;;2066729;28;20585;-76
2023/08/26 02:42:53;;;;;;;;;;;20.50;99.90;;;;;;2058831;28;19910;-76
2023/08/26 02:43:54;;;;;;;;;;;20.50;99.90;;;;;;2074813;28;19921;-76
2023/08/26 02:44:54;;;;;;;;;;;20.50;99.90;;;;;;2066657;28;19987;-73
2023/08/26 02:45:56;;;;;;;;;;;20.50;99.90;;;;;;2062974;28;19982;-77
2023/08/26 02:46:56;;;;;;;;;;;20.50;99.90;;;;;;2067015;28;20586;-75
2023/08/26 02:47:59;;;;;;;;;;;20.50;99.90;;;;;;2066825;28;19921;-75
2023/08/26 02:49:01;;;;;;;;;;;20.50;99.90;;;;;;2070509;28;19921;-76
2023/08/26 02:50:03;;;;;;;;;;;20.50;99.90;;;;;;2076938;28;19913;-76
2023/08/26 02:51:04;;;;;;;;;;;20.50;99.90;;;;;;2068691;28;19920;-76
2023/08/26 02:52:05;;;;;;;;;;;20.50;99.90;;;;;;2069619;28;20347;-76
2023/08/26 02:53:06;;;;;;;;;;;20.50;99.90;;;;;;2076722;28;19914;-75
2023/08/26 02:54:06;;;;;;;;;;;20.50;99.90;;;;;;2075992;28;19913;-76
2023/08/26 02:55:09;;;;;;;;;;;20.50;99.90;;;;;;2077825;28;20029;-75
2023/08/26 02:56:09;;;;;;;;;;;20.50;99.90;;;;;;2074910;28;19913;-76
2023/08/26 02:57:10;;;;;;;;;;;20.50;99.90;;;;;;2074680;28;19927;-75
2023/08/26 02:58:10;;;;;;;;;;;20.50;99.90;;;;;;2072531;28;19917;-75
2023/08/26 02:59:11;;;;;;;;;;;20.50;99.90;;;;;;2058309;28;19988;-75
2023/08/26 03:00:13;;;;;;;;;;;20.40;99.90;;;;;;2064404;28;19917;-76
2023/08/26 03:01:16;;;;;;;;;;;20.40;99.90;;;;;;2074662;28;19924;-76
2023/08/26 03:02:16;;;;;;;;;;;20.50;99.90;;;;;;2066786;28;20097;-76
2023/08/26 03:03:17;;;;;;;;;;;20.40;99.90;;;;;;2066583;28;19985;-75
2023/08/26 03:04:18;;;;;;;;;;;20.40;99.90;;;;;;2066249;28;19917;-75
2023/08/26 03:05:18;;;;;;;;;;;20.40;99.90;;;;;;2074548;28;19917;-75
2023/08/26 03:06:19;;;;;;;;;;;20.40;99.90;;;;;;2074693;28;19924;-74
2023/08/26 03:07:19;;;;;;;;;;;20.40;99.90;;;;;;2074601;28;19916;-75
2023/08/26 03:08:20;;;;;;;;;;;20.40;99.90;;;;;;2074444;28;20356;-76
2023/08/26 03:09:21;;;;;;;;;;;20.50;99.90;;;;;;2066435;28;19918;-76
2023/08/26 03:10:21;;;;;;;;;;;20.50;99.90;;;;;;2070394;28;20070;-76
2023/08/26 03:11:22;;;;;;;;;;;20.50;99.90;;;;;;2067289;28;19949;-76
2023/08/26 03:12:22;;;;;;;;;;;20.50;99.90;;;;;;2073683;28;19956;-76
2023/08/26 03:13:23;;;;;;;;;;;20.50;99.90;;;;;;2078087;28;19913;-76
2023/08/26 03:14:23;;;;;;;;;;;20.50;99.90;;;;;;2066544;28;19984;-75
2023/08/26 03:15:27;;;;;;;;;;;20.40;99.90;;;;;;2066324;28;19940;-75
2023/08/26 03:16:28;;;;;;;;;;;20.50;99.90;;;;;;2068876;28;19913;-73
2023/08/26 03:17:28;;;;;;;;;;;20.50;99.90;;;;;;2080268;28;19944;-75
2023/08/26 03:18:29;;;;;;;;;;;20.40;99.90;;;;;;2062184;28;19925;-75
2023/08/26 03:19:30;;;;;;;;;;;20.50;99.90;;;;;;2069935;28;19976;-74
2023/08/26 03:20:31;;;;;;;;;;;20.50;99.90;;;;;;2082755;28;19916;-76
2023/08/26 03:21:32;;;;;;;;;;;20.40;99.90;;;;;;2075156;28;19921;-76
2023/08/26 03:22:33;;;;;;;;;;;20.50;99.90;;;;;;2069814;28;20327;-76
2023/08/26 03:23:34;;;;;;;;;;;20.50;99.90;;;;;;2061854;28;19920;-76
2023/08/26 03:24:38;;;;;;;;;;;20.50;99.90;;;;;;2062589;28;19918;-77
2023/08/26 03:25:40;;;;;;;;;;;20.50;99.90;;;;;;2061170;28;19921;-77
2023/08/26 03:26:40;;;;;;;;;;;20.40;99.90;;;;;;2063847;28;19951;-77
2023/08/26 03:27:41;;;;;;;;;;;20.50;99.90;;;;;;2066369;28;19914;-76
2023/08/26 03:28:42;;;;;;;;;;;20.50;99.90;;;;;;2066387;28;19913;-76
2023/08/26 03:29:42;;;;;;;;;;;20.50;99.90;;;;;;2066416;28;19957;-76
2023/08/26 03:30:43;;;;;;;;;;;20.50;99.90;;;;;;2066435;28;20360;-75
2023/08/26 03:31:45;;;;;;;;;;;20.50;99.90;;;;;;2064120;28;19925;-76
2023/08/26 03:32:48;;;;;;;;;;;20.50;99.90;;;;;;2074614;28;20105;-76
2023/08/26 03:33:48;;;;;;;;;;;20.50;99.90;;;;;;2082578;28;19924;-76
2023/08/26 03:34:49;;;;;;;;;;;20.50;99.90;;;;;;2074401;28;19924;-75
2023/08/26 03:35:50;;;;;;;;;;;20.50;99.90;;;;;;2068154;28;19925;-75
2023/08/26 03:36:50;;;;;;;;;;;20.50;99.90;;;;;;2072255;28;19939;-74
2023/08/26 03:37:51;;;;;;;;;;;20.50;99.90;;;;;;2066157;28;19917;-75
2023/08/26 03:38:51;;;;;;;;;;;20.60;99.90;;;;;;2066446;28;19914;-76
2023/08/26 03:39:52;;;;;;;;;;;20.60;99.90;;;;;;2074551;28;20370;-76
2023/08/26 03:40:52;;;;;;;;;;;20.60;99.90;;;;;;2073334;28;20375;-76
2023/08/26 03:41:53;;;;;;;;;;;20.60;99.90;;;;;;2075069;28;20075;-75
2023/08/26 03:42:53;;;;;;;;;;;20.60;99.90;;;;;;2074240;28;19963;-76
2023/08/26 03:43:54;;;;;;;;;;;20.60;99.90;;;;;;2074246;28;19917;-76
2023/08/26 03:44:55;;;;;;;;;;;20.70;99.90;;;;;;2074970;28;19937;-76
2023/08/26 03:45:55;;;;;;;;;;;20.70;99.90;;;;;;2074955;28;19986;-75
2023/08/26 03:46:56;;;;;;;;;;;20.70;99.90;;;;;;2082506;28;19939;-75
2023/08/26 03:47:56;;;;;;;;;;;20.70;99.90;;;;;;2082692;28;19923;-75
2023/08/26 03:48:57;;;;;;;;;;;20.70;99.90;;;;;;2075209;28;19927;-76
2023/08/26 03:49:57;;;;;;;;;;;20.80;99.90;;;;;;2074263;28;19925;-75
2023/08/26 03:50:59;;;;;;;;;;;20.80;99.90;;;;;;2066266;28;19925;-76
2023/08/26 03:52:00;;;;;;;;;;;20.80;99.90;;;;;;2074649;28;19918;-76
2023/08/26 03:53:00;;;;;;;;;;;20.90;99.90;;;;;;2075013;28;19923;-75
2023/08/26 03:54:01;;;;;;;;;;;20.90;99.90;;;;;;2074464;28;20014;-75
2023/08/26 03:55:02;;;;;;;;;;;21.00;99.90;;;;;;2066166;28;19913;-76
2023/08/26 03:56:03;;;;;;;;;;;21.00;99.90;;;;;;2074339;28;20630;-75
2023/08/26 03:57:04;;;;;;;;;;;21.00;99.90;;;;;;2073105;28;19951;-73
2023/08/26 03:58:04;;;;;;;;;;;21.00;99.90;;;;;;2066260;28;19925;-76
2023/08/26 03:59:05;;;;;;;;;;;21.00;99.90;;;;;;2066457;28;19921;-77
2023/08/26 04:00:06;;;;;;;;;;;21.00;99.90;;;;;;2070667;28;20770;-76
2023/08/26 04:01:06;;;;;;;;;;;21.00;99.90;;;;;;2076349;28;20007;-76
2023/08/26 04:02:07;;;;;;;;;;;21.00;99.90;;;;;;2079711;28;20214;-76
2023/08/26 04:03:07;;;;;;;;;;;21.00;99.90;;;;;;2080405;28;19931;-76
2023/08/26 04:04:08;;;;;;;;;;;21.00;99.90;;;;;;2075914;28;19924;-77
2023/08/26 04:05:09;;;;;;;;;;;21.00;99.90;;;;;;2067697;28;19918;-78
2023/08/26 04:06:09;;;;;;;;;;;21.00;99.90;;;;;;2067761;28;19921;-76
2023/08/26 04:07:10;;;;;;;;;;;21.00;99.90;;;;;;2066798;28;19924;-77
2023/08/26 04:08:11;;;;;;;;;;;20.90;99.90;;;;;;2060936;28;19918;-77
2023/08/26 04:09:13;;;;;;;;;;;20.90;99.90;;;;;;2062462;28;20760;-75
2023/08/26 04:10:13;;;;;;;;;;;20.90;99.90;;;;;;2071901;28;19944;-77
2023/08/26 04:11:17;;;;;;;;;;;20.90;99.90;;;;;;2069279;28;19918;-76
2023/08/26 04:12:18;;;;;;;;;;;21.00;99.90;;;;;;2068451;28;20013;-77
2023/08/26 04:13:24;;;;;;;;;;;20.90;99.90;;;;;;2075898;28;20450;-78
2023/08/26 04:14:25;;;;;;;;;;;21.00;99.90;;;;;;2075672;28;19980;-77
2023/08/26 04:15:26;;;;;;;;;;;21.00;99.90;;;;;;2076161;28;19923;-77
2023/08/26 04:16:28;;;;;;;;;;;20.90;99.90;;;;;;2066010;28;19917;-76
2023/08/26 04:17:29;;;;;;;;;;;20.90;99.90;;;;;;2060078;28;19925;-76
2023/08/26 04:18:30;;;;;;;;;;;20.90;99.90;;;;;;2069579;28;19933;-76
2023/08/26 04:19:31;;;;;;;;;;;20.90;99.90;;;;;;2075812;28;19921;-77
2023/08/26 04:20:31;;;;;;;;;;;20.90;99.90;;;;;;2075771;28;19956;-76
2023/08/26 04:21:32;;;;;;;;;;;20.90;99.90;;;;;;2076739;28;20346;-76
2023/08/26 04:22:33;;;;;;;;;;;20.90;99.90;;;;;;2076123;28;20350;-76
2023/08/26 04:23:33;;;;;;;;;;;20.90;99.90;;;;;;2075792;28;19920;-76
2023/08/26 04:24:34;;;;;;;;;;;20.90;99.90;;;;;;2084029;28;19990;-76
2023/08/26 04:25:34;;;;;;;;;;;20.90;99.90;;;;;;2067724;28;20588;-76
2023/08/26 04:26:35;;;;;;;;;;;20.90;99.90;;;;;;2071594;28;20007;-75
2023/08/26 04:27:35;;;;;;;;;;;20.90;99.90;;;;;;2076604;28;19924;-76
2023/08/26 04:28:36;;;;;;;;;;;20.80;99.90;;;;;;2075562;28;20063;-76
2023/08/26 04:29:36;;;;;;;;;;;20.80;99.90;;;;;;2075696;28;20022;-75
2023/08/26 04:30:37;;;;;;;;;;;20.80;99.90;;;;;;2075571;28;19924;-74
2023/08/26 04:31:39;;;;;;;;;;;20.80;99.90;;;;;;2063121;28;20372;-78
2023/08/26 04:32:39;;;;;;;;;;;20.80;99.90;;;;;;2055335;28;19922;-76
2023/08/26 04:33:40;;;;;;;;;;;20.80;99.90;;;;;;2060075;28;19949;-76
2023/08/26 04:34:41;;;;;;;;;;;20.80;99.90;;;;;;2075545;28;19917;-77
2023/08/26 04:35:41;;;;;;;;;;;20.80;99.90;;;;;;2067247;28;19932;-78
2023/08/26 04:36:42;;;;;;;;;;;20.80;99.90;;;;;;2072309;28;19917;-77
2023/08/26 04:37:43;;;;;;;;;;;20.80;99.90;;;;;;2070843;28;19914;-77
2023/08/26 04:38:43;;;;;;;;;;;20.80;99.90;;;;;;2059384;28;19982;-77
2023/08/26 04:39:44;;;;;;;;;;;20.80;99.90;;;;;;2059135;28;20347;-77
2023/08/26 04:40:45;;;;;;;;;;;20.80;99.90;;;;;;2072477;28;20015;-77
2023/08/26 04:41:47;;;;;;;;;;;20.80;99.90;;;;;;2075785;28;20402;-77
2023/08/26 04:42:47;;;;;;;;;;;20.80;99.90;;;;;;2075576;28;19924;-77
2023/08/26 04:43:48;;;;;;;;;;;20.80;99.90;;;;;;2075500;28;19920;-77
2023/08/26 04:44:50;;;;;;;;;;;20.80;99.90;;;;;;2067285;28;20159;-77
2023/08/26 04:45:52;;;;;;;;;;;20.80;99.90;;;;;;2073445;28;19928;-77
2023/08/26 04:46:53;;;;;;;;;;;20.80;99.90;;;;;;2074522;28;20343;-76
2023/08/26 04:47:54;;;;;;;;;;;20.80;99.90;;;;;;2076502;28;19913;-76
2023/08/26 04:48:54;;;;;;;;;;;20.80;99.90;;;;;;2078573;28;19917;-76
2023/08/26 04:49:55;;;;;;;;;;;20.80;99.90;;;;;;2077744;28;19913;-76
2023/08/26 04:50:55;;;;;;;;;;;20.80;99.90;;;;;;2076985;28;20340;-76
2023/08/26 04:51:56;;;;;;;;;;;20.80;99.90;;;;;;2076114;28;19921;-76
2023/08/26 04:52:57;;;;;;;;;;;20.80;99.90;;;;;;2075108;28;19928;-76
2023/08/26 04:53:59;;;;;;;;;;;20.80;99.90;;;;;;2075284;28;19971;-76
2023/08/26 04:55:01;;;;;;;;;;;20.80;99.90;;;;;;2060166;28;20737;-76
2023/08/26 04:56:02;;;;;;;;;;;20.90;99.90;;;;;;2066338;28;20004;-75
2023/08/26 04:57:03;;;;;;;;;;;20.80;99.90;;;;;;2075369;28;20016;-76
2023/08/26 04:58:06;;;;;;;;;;;20.80;99.90;;;;;;2067766;28;19913;-76
2023/08/26 04:59:07;;;;;;;;;;;20.90;99.90;;;;;;2067757;28;20402;-75
2023/08/26 05:00:10;;;;;;;;;;;20.80;99.90;;;;;;2075527;28;19996;-75
2023/08/26 05:01:10;;;;;;;;;;;20.80;99.90;;;;;;2071180;28;20451;-76
2023/08/26 05:02:11;;;;;;;;;;;20.80;99.90;;;;;;2067353;28;19921;-76
2023/08/26 05:03:11;;;;;;;;;;;20.80;99.90;;;;;;2064011;28;20419;-77
2023/08/26 05:04:12;;;;;;;;;;;20.80;99.90;;;;;;2072003;28;19917;-76
2023/08/26 05:05:13;;;;;;;;;;;20.80;99.90;;;;;;2079736;28;19923;-74
2023/08/26 05:06:13;;;;;;;;;;;20.80;99.90;;;;;;2064216;28;20008;-75
2023/08/26 05:07:14;;;;;;;;;;;20.80;99.90;;;;;;2063252;28;19921;-75
2023/08/26 05:08:15;;;;;;;;;;;20.80;99.90;;;;;;2072359;28;19917;-76
2023/08/26 05:09:15;;;;;;;;;;;20.80;99.90;;;;;;2074422;28;19913;-76
2023/08/26 05:10:16;;;;;;;;;;;20.80;99.90;;;;;;2061533;28;20673;-76
2023/08/26 05:11:16;;;;;;;;;;;20.80;99.90;;;;;;2067048;28;19971;-76
2023/08/26 05:12:17;;;;;;;;;;;20.70;99.90;;;;;;2066376;28;19945;-75
2023/08/26 05:13:18;;;;;;;;;;;20.70;99.90;;;;;;2061941;28;20012;-76
2023/08/26 05:14:18;;;;;;;;;;;20.70;99.90;;;;;;2056472;28;20013;-76
2023/08/26 05:15:19;;;;;;;;;;;20.70;99.90;;;;;;2052624;28;20009;-75
2023/08/26 05:16:19;;;;;;;;;;;20.70;99.90;;;;;;2061274;28;20379;-75
2023/08/26 05:17:21;;;;;;;;;;;20.70;99.90;;;;;;2072771;28;20024;-76
2023/08/26 05:18:21;;;;;;;;;;;20.70;99.90;;;;;;2067167;28;19913;-78
2023/08/26 05:19:22;;;;;;;;;;;20.70;99.90;;;;;;2067282;28;20682;-76
2023/08/26 05:20:22;;;;;;;;;;;20.70;99.90;;;;;;2074094;28;20510;-75
2023/08/26 05:21:23;;;;;;;;;;;20.70;99.90;;;;;;2083499;28;19916;-77
2023/08/26 05:22:24;;;;;;;;;;;20.60;99.90;;;;;;2075031;28;20291;-76
2023/08/26 05:23:25;;;;;;;;;;;20.70;99.90;;;;;;2075079;28;19917;-75
2023/08/26 05:24:26;;;;;;;;;;;20.60;99.90;;;;;;2075262;28;19917;-76
2023/08/26 05:25:26;;;;;;;;;;;20.60;99.90;;;;;;2067183;28;20406;-76
2023/08/26 05:26:27;;;;;;;;;;;20.60;99.90;;;;;;2072412;28;19925;-76
2023/08/26 05:27:27;;;;;;;;;;;20.60;99.90;;;;;;2077889;28;20036;-75
2023/08/26 05:28:29;;;;;;;;;;;20.60;99.90;;;;;;2068298;28;19913;-76
2023/08/26 05:29:31;;;;;;;;;;;20.60;99.90;;;;;;2063056;28;20030;-77
2023/08/26 05:30:33;;;;;;;;;;;20.60;99.90;;;;;;2051194;28;19914;-77
2023/08/26 05:31:33;;;;;;;;;;;20.60;99.90;;;;;;2051461;28;20019;-76
2023/08/26 05:32:34;;;;;;;;;;;20.70;99.90;;;;;;2058757;28;19921;-77
2023/08/26 05:33:36;;;;;;;;;;;20.70;99.90;;;;;;2062641;28;20595;-76
2023/08/26 05:34:37;;;;;;;;;;;20.70;99.90;;;;;;2071418;28;19913;-77
2023/08/26 05:35:38;;;;;;;;;;;20.70;99.90;;;;;;2075231;28;20467;-76
2023/08/26 05:36:39;;;;;;;;;;;20.70;99.90;;;;;;2058691;28;20655;-75
2023/08/26 05:37:44;;;;;;;;;;;20.70;99.90;;;;;;2054850;28;19922;-75
2023/08/26 05:38:45;;;;;;;;;;;20.70;99.90;;;;;;2067352;28;19928;-76
2023/08/26 05:39:46;;;;;;;;;;;20.80;99.90;;;;;;2072234;28;19926;-76
2023/08/26 05:40:46;;;;;;;;;;;20.80;99.90;;;;;;2074986;28;19913;-77
2023/08/26 05:41:47;;;;;;;;;;;20.80;99.90;;;;;;2075337;28;19964;-76
2023/08/26 05:42:47;;;;;;;;;;;20.80;99.90;;;;;;2070112;28;19917;-75
2023/08/26 05:43:49;;;;;;;;;;;20.80;99.90;;;;;;2062075;28;19957;-74
2023/08/26 05:44:50;;;;;;;;;;;20.80;99.90;;;;;;2066684;28;20146;-72
2023/08/26 05:45:54;;;;;;;;;;;20.80;99.90;;;;;;2058859;28;20557;-73
2023/08/26 05:46:55;;;;;;;;;;;20.80;99.90;;;;;;2067303;28;19972;-73
2023/08/26 05:47:56;;;;;;;;;;;20.80;99.90;;;;;;2066849;28;20503;-74
2023/08/26 05:48:56;;;;;;;;;;;20.80;99.90;;;;;;2058875;28;19914;-74
2023/08/26 05:49:58;;;;;;;;;;;20.80;99.90;;;;;;2064590;28;19918;-74
2023/08/26 05:50:59;;;;;;;;;;;20.80;99.90;;;;;;2066637;28;20711;-72
2023/08/26 05:51:59;;;;;;;;;;;20.80;99.90;;;;;;2075097;28;19928;-72
2023/08/26 05:53:00;;;;;;;;;;;20.80;99.90;;;;;;2079987;28;20327;-72
2023/08/26 05:54:01;;;;;;;;;;;20.80;99.90;;;;;;2075119;28;19946;-72
2023/08/26 05:55:01;;;;;;;;;;;20.80;99.90;;;;;;2066725;28;20573;-72